Time;durP1;ratioP1;P1;durP2;ratioP2;P2;SDS_P1;SDS_P2;PMS_P1;PMS_P2;Temp;Humidity;BMP_temperature;BMP_pressure;BME280_temperature;BME280_humidity;BME280_pressure;Samples;Min_cycle;Max_cycle;Signal;HPM_P1;HPM_P2
2023/06/01 00:00:55;;;;;;;7.60;3.00;;;;;;;;;;5013100;28;20050;-80
2023/06/01 00:03:23;;;;;;;10.35;2.63;;;;;;;;;;5012725;28;20124;-79
2023/06/01 00:05:50;;;;;;;6.65;2.38;;;;;;;;;;5012617;28;20526;-79
2023/06/01 00:08:17;;;;;;;6.57;3.20;;;;;;;;;;4996343;28;20064;-79
2023/06/01 00:10:44;;;;;;;6.70;2.42;;;;;;;;;;5013181;28;20061;-78
2023/06/01 00:13:10;;;;;;;5.93;2.55;;;;;;;;;;5012856;28;20053;-79
2023/06/01 00:15:37;;;;;;;5.60;2.55;;;;;;;;;;5022605;28;20037;-77
2023/06/01 00:18:05;;;;;;;8.63;2.92;;;;;;;;;;5000701;28;20052;-78
2023/06/01 00:20:32;;;;;;;8.90;2.58;;;;;;;;;;5011413;28;20106;-79
2023/06/01 00:22:59;;;;;;;6.65;2.80;;;;;;;;;;5009721;28;20050;-80
2023/06/01 00:25:26;;;;;;;5.68;2.88;;;;;;;;;;5012539;28;20042;-80
2023/06/01 00:27:52;;;;;;;4.43;2.47;;;;;;;;;;4993786;28;20115;-78
2023/06/01 00:30:19;;;;;;;5.32;2.70;;;;;;;;;;5016783;28;20065;-79
2023/06/01 00:32:46;;;;;;;6.32;2.55;;;;;;;;;;5010841;28;20069;-78
2023/06/01 00:35:12;;;;;;;7.35;2.60;;;;;;;;;;5013234;28;20062;-76
2023/06/01 00:37:39;;;;;;;6.75;2.55;;;;;;;;;;5018154;28;20184;-79
2023/06/01 00:40:06;;;;;;;5.20;2.40;;;;;;;;;;5010429;28;20160;-79
2023/06/01 00:42:33;;;;;;;3.38;2.00;;;;;;;;;;5011464;28;20046;-80
2023/06/01 00:45:00;;;;;;;3.42;1.83;;;;;;;;;;4995085;28;20042;-79
2023/06/01 00:47:26;;;;;;;3.20;1.80;;;;;;;;;;5010059;28;20056;-79
2023/06/01 00:49:53;;;;;;;3.88;2.45;;;;;;;;;;4993692;28;20363;-79
2023/06/01 00:52:20;;;;;;;5.45;2.25;;;;;;;;;;4993700;28;20061;-80
2023/06/01 00:54:47;;;;;;;5.47;2.40;;;;;;;;;;4994175;28;20042;-80
2023/06/01 00:57:14;;;;;;;4.00;2.10;;;;;;;;;;5009535;28;20049;-79
2023/06/01 00:59:40;;;;;;;7.03;2.60;;;;;;;;;;5010218;28;20160;-79
2023/06/01 01:02:08;;;;;;;4.82;2.88;;;;;;;;;;5010175;28;20045;-80
2023/06/01 01:04:35;;;;;;;7.15;2.83;;;;;;;;;;5007391;28;20068;-78
2023/06/01 01:07:03;;;;;;;6.85;3.40;;;;;;;;;;5009291;28;20050;-77
2023/06/01 01:09:53;;;;;;;5.95;2.78;;;;;;;;;;4992878;28;20056;-78
2023/06/01 01:12:23;;;;;;;8.80;3.25;;;;;;;;;;4993121;28;20352;-80
2023/06/01 01:15:04;;;;;;;10.45;2.90;;;;;;;;;;4992725;28;20064;-80
2023/06/01 01:17:34;;;;;;;5.78;2.60;;;;;;;;;;5000121;28;20030;-78
2023/06/01 01:20:08;;;;;;;5.53;2.45;;;;;;;;;;5024514;28;20076;-80
2023/06/01 01:22:38;;;;;;;5.75;2.22;;;;;;;;;;4962094;28;1311750;-76
2023/06/01 01:25:35;;;;;;;3.85;2.15;;;;;;;;;;5011294;28;20081;-78
2023/06/01 01:28:05;;;;;;;8.38;2.65;;;;;;;;;;4995488;28;20413;-79
2023/06/01 01:30:34;;;;;;;6.13;2.10;;;;;;;;;;5010224;28;20050;-80
2023/06/01 01:33:01;;;;;;;5.95;2.58;;;;;;;;;;4993970;28;20046;-78
2023/06/01 01:35:29;;;;;;;6.60;2.47;;;;;;;;;;5010456;28;20044;-79
2023/06/01 01:37:56;;;;;;;4.45;2.40;;;;;;;;;;5010369;28;20054;-79
2023/06/01 01:40:23;;;;;;;5.93;3.05;;;;;;;;;;5009371;28;20052;-77
2023/06/01 01:42:50;;;;;;;7.75;3.13;;;;;;;;;;4993787;28;20053;-78
2023/06/01 01:45:17;;;;;;;5.15;2.55;;;;;;;;;;4985678;28;20046;-80
2023/06/01 01:47:50;;;;;;;5.72;2.67;;;;;;;;;;4993485;28;20045;-78
2023/06/01 01:50:19;;;;;;;7.82;3.75;;;;;;;;;;5009707;28;20041;-77
2023/06/01 01:52:47;;;;;;;8.15;3.40;;;;;;;;;;5008094;28;20057;-77
2023/06/01 01:55:15;;;;;;;5.15;3.20;;;;;;;;;;4992712;28;20104;-81
2023/06/01 01:57:43;;;;;;;9.63;3.53;;;;;;;;;;4993612;28;20519;-77
2023/06/01 02:00:11;;;;;;;6.63;3.05;;;;;;;;;;4992953;28;20046;-81
2023/06/01 02:02:44;;;;;;;5.03;2.72;;;;;;;;;;5011797;28;20050;-78
2023/06/01 02:05:11;;;;;;;8.77;3.00;;;;;;;;;;5015042;28;20184;-78
2023/06/01 02:07:37;;;;;;;5.75;3.17;;;;;;;;;;5008160;28;20117;-78
2023/06/01 02:10:05;;;;;;;6.93;2.90;;;;;;;;;;5040196;28;20049;-79
2023/06/01 02:12:32;;;;;;;8.48;2.85;;;;;;;;;;5029959;28;20041;-78
2023/06/01 02:14:58;;;;;;;4.30;2.63;;;;;;;;;;5030099;28;20057;-79
2023/06/01 02:17:26;;;;;;;5.60;2.53;;;;;;;;;;5029105;28;20052;-78
2023/06/01 02:19:54;;;;;;;9.00;2.70;;;;;;;;;;5029429;28;20107;-78
2023/06/01 02:22:20;;;;;;;4.97;2.10;;;;;;;;;;5014501;28;20104;-78
2023/06/01 02:24:47;;;;;;;7.60;2.38;;;;;;;;;;5031737;28;20050;-78
2023/06/01 02:27:14;;;;;;;6.05;2.75;;;;;;;;;;5044022;28;20041;-76
2023/06/01 02:29:41;;;;;;;6.93;2.70;;;;;;;;;;5038798;28;20053;-80
2023/06/01 02:32:08;;;;;;;9.23;2.92;;;;;;;;;;5031188;28;20041;-81
2023/06/01 02:34:36;;;;;;;4.75;2.58;;;;;;;;;;5030760;28;20051;-79
2023/06/01 02:37:04;;;;;;;6.72;3.17;;;;;;;;;;5029322;28;20048;-79
2023/06/01 02:39:31;;;;;;;9.30;3.40;;;;;;;;;;5030184;28;20045;-81
2023/06/01 02:41:58;;;;;;;5.32;3.05;;;;;;;;;;5028935;28;20588;-80
2023/06/01 02:44:25;;;;;;;10.65;3.10;;;;;;;;;;5030315;28;20057;-80
2023/06/01 02:46:52;;;;;;;7.65;3.33;;;;;;;;;;5030780;28;20136;-78
2023/06/01 02:49:18;;;;;;;5.55;2.90;;;;;;;;;;5029672;28;20453;-78
2023/06/01 02:51:45;;;;;;;5.05;2.50;;;;;;;;;;5031465;28;20560;-77
2023/06/01 02:54:21;;;;;;;6.05;2.80;;;;;;;;;;5032589;28;20045;-78
2023/06/01 02:56:48;;;;;;;4.45;2.30;;;;;;;;;;5037818;28;20047;-76
2023/06/01 02:59:34;;;;;;;5.38;2.47;;;;;;;;;;5035969;28;20119;-79
2023/06/01 03:02:02;;;;;;;5.95;2.65;;;;;;;;;;5033164;28;20216;-81
2023/06/01 03:04:32;;;;;;;6.10;2.72;;;;;;;;;;5002513;28;20121;-79
2023/06/01 03:07:01;;;;;;;5.68;2.40;;;;;;;;;;5018255;28;20133;-79
2023/06/01 03:09:41;;;;;;;5.10;2.60;;;;;;;;;;4998583;28;20549;-79
2023/06/01 03:12:27;;;;;;;6.65;2.70;;;;;;;;;;5010655;28;20562;-80
2023/06/01 03:14:53;;;;;;;8.40;2.85;;;;;;;;;;4995447;28;20144;-79
2023/06/01 03:17:20;;;;;;;4.93;2.40;;;;;;;;;;4994142;28;20052;-79
2023/06/01 03:19:47;;;;;;;6.85;2.50;;;;;;;;;;5011277;28;20045;-79
2023/06/01 03:22:21;;;;;;;3.63;2.05;;;;;;;;;;5012797;28;20056;-78
2023/06/01 03:24:49;;;;;;;6.55;2.70;;;;;;;;;;5015077;28;20053;-78
2023/06/01 03:27:19;;;;;;;6.95;2.38;;;;;;;;;;5013786;28;20040;-78
2023/06/01 03:29:46;;;;;;;4.35;2.33;;;;;;;;;;5018314;28;20034;-79
2023/06/01 03:32:13;;;;;;;6.80;2.50;;;;;;;;;;5023642;28;20049;-80
2023/06/01 03:34:41;;;;;;;5.75;2.47;;;;;;;;;;5013510;28;20065;-78
2023/06/01 03:37:08;;;;;;;6.20;2.70;;;;;;;;;;5012588;28;20042;-79
2023/06/01 03:39:35;;;;;;;4.45;2.10;;;;;;;;;;4996998;28;20041;-78
2023/06/01 03:42:05;;;;;;;5.00;2.45;;;;;;;;;;5018694;28;20042;-79
2023/06/01 03:44:32;;;;;;;4.25;2.80;;;;;;;;;;5017481;28;20049;-78
2023/06/01 03:46:58;;;;;;;7.60;3.33;;;;;;;;;;5021545;28;20054;-79
2023/06/01 03:49:25;;;;;;;4.60;2.42;;;;;;;;;;5009737;28;20053;-78
2023/06/01 03:51:52;;;;;;;6.70;2.80;;;;;;;;;;5009361;28;20049;-78
2023/06/01 03:54:20;;;;;;;7.93;2.40;;;;;;;;;;5011191;28;20062;-80
2023/06/01 03:56:47;;;;;;;6.13;2.53;;;;;;;;;;4994012;28;20038;-78
2023/06/01 03:59:14;;;;;;;6.57;2.58;;;;;;;;;;5009816;28;20054;-78
2023/06/01 04:01:42;;;;;;;7.78;2.67;;;;;;;;;;4993941;28;20068;-77
2023/06/01 04:04:12;;;;;;;5.75;2.88;;;;;;;;;;5008346;28;20502;-81
2023/06/01 04:06:42;;;;;;;6.68;2.50;;;;;;;;;;5006955;28;20184;-80
2023/06/01 04:09:09;;;;;;;5.68;2.78;;;;;;;;;;5004016;28;20636;-79
2023/06/01 04:11:36;;;;;;;7.80;2.70;;;;;;;;;;5004477;28;20070;-78
2023/06/01 04:14:03;;;;;;;10.45;2.40;;;;;;;;;;5004938;28;20395;-80
2023/06/01 04:16:30;;;;;;;5.72;2.70;;;;;;;;;;5009103;28;20084;-79
2023/06/01 04:18:57;;;;;;;7.72;3.03;;;;;;;;;;5009911;28;20129;-80
2023/06/01 04:21:26;;;;;;;11.77;3.17;;;;;;;;;;4998331;28;20034;-81
2023/06/01 04:23:53;;;;;;;6.05;2.70;;;;;;;;;;5010574;28;20046;-81
2023/06/01 04:26:20;;;;;;;6.47;2.67;;;;;;;;;;5004368;28;20134;-80
2023/06/01 04:28:48;;;;;;;9.25;2.88;;;;;;;;;;5015928;28;20038;-80
2023/06/01 04:31:19;;;;;;;4.30;2.30;;;;;;;;;;5011249;28;20050;-79
2023/06/01 04:33:52;;;;;;;6.25;3.10;;;;;;;;;;5010385;28;20112;-79
2023/06/01 04:36:22;;;;;;;5.40;2.60;;;;;;;;;;5009137;28;20045;-80
2023/06/01 04:38:54;;;;;;;9.20;3.20;;;;;;;;;;5041056;28;20048;-79
2023/06/01 04:41:21;;;;;;;6.05;3.25;;;;;;;;;;5035865;28;20121;-78
2023/06/01 04:43:51;;;;;;;7.43;2.83;;;;;;;;;;5032698;28;20124;-79
2023/06/01 04:46:19;;;;;;;8.77;3.10;;;;;;;;;;5035786;28;20087;-80
2023/06/01 04:48:46;;;;;;;8.77;3.67;;;;;;;;;;5018002;28;20060;-80
2023/06/01 04:51:19;;;;;;;12.93;3.60;;;;;;;;;;5015852;28;20050;-80
2023/06/01 04:53:49;;;;;;;9.30;3.28;;;;;;;;;;5015174;28;20053;-80
2023/06/01 04:56:17;;;;;;;7.97;3.67;;;;;;;;;;5013348;28;20076;-80
2023/06/01 04:58:44;;;;;;;14.15;3.65;;;;;;;;;;5011791;28;20139;-80
2023/06/01 05:01:15;;;;;;;13.82;3.65;;;;;;;;;;5019928;28;20057;-79
2023/06/01 05:03:44;;;;;;;8.60;3.75;;;;;;;;;;5025990;28;20076;-80
2023/06/01 05:06:11;;;;;;;10.38;3.72;;;;;;;;;;5018712;28;20046;-79
2023/06/01 05:08:39;;;;;;;11.93;3.50;;;;;;;;;;5018152;28;20049;-79
2023/06/01 05:11:06;;;;;;;13.07;3.33;;;;;;;;;;5016236;28;20046;-79
2023/06/01 05:13:34;;;;;;;10.07;3.65;;;;;;;;;;5016722;28;20054;-78
2023/06/01 05:16:04;;;;;;;9.00;3.85;;;;;;;;;;4997038;28;20050;-82
2023/06/01 05:18:32;;;;;;;10.35;3.63;;;;;;;;;;4995408;28;20585;-81
2023/06/01 05:20:58;;;;;;;14.77;3.58;;;;;;;;;;5011069;28;20052;-80
2023/06/01 05:23:26;;;;;;;12.05;3.35;;;;;;;;;;5012141;28;20046;-82
2023/06/01 05:25:59;;;;;;;18.83;3.88;;;;;;;;;;5010220;28;20061;-81
2023/06/01 05:28:26;;;;;;;23.23;3.83;;;;;;;;;;4994016;28;20042;-80
2023/06/01 05:30:52;;;;;;;21.48;3.67;;;;;;;;;;4993913;28;20046;-81
2023/06/01 05:33:19;;;;;;;23.30;3.92;;;;;;;;;;4995229;28;20092;-82
2023/06/01 05:35:46;;;;;;;17.02;3.92;;;;;;;;;;5010812;28;20049;-83
2023/06/01 05:38:16;;;;;;;10.70;3.55;;;;;;;;;;4995291;28;20046;-80
2023/06/01 05:40:44;;;;;;;14.88;3.63;;;;;;;;;;5011010;28;20050;-81
2023/06/01 05:43:11;;;;;;;13.20;3.92;;;;;;;;;;5010070;28;20133;-82
2023/06/01 05:45:38;;;;;;;9.20;3.35;;;;;;;;;;5010478;28;20052;-80
2023/06/01 05:48:04;;;;;;;11.05;3.40;;;;;;;;;;4992092;28;20423;-79
2023/06/01 05:50:31;;;;;;;11.32;3.60;;;;;;;;;;5008213;28;20050;-80
2023/06/01 05:52:58;;;;;;;15.20;3.92;;;;;;;;;;4991402;28;20056;-80
2023/06/01 05:55:25;;;;;;;12.55;3.78;;;;;;;;;;5008479;28;20096;-80
2023/06/01 05:57:52;;;;;;;10.27;3.63;;;;;;;;;;4995013;28;20082;-81
2023/06/01 06:00:18;;;;;;;15.13;3.65;;;;;;;;;;5007593;28;20419;-81
2023/06/01 06:02:47;;;;;;;9.55;3.70;;;;;;;;;;5008321;28;20077;-81
2023/06/01 06:05:14;;;;;;;13.98;3.75;;;;;;;;;;5008532;28;20054;-80
2023/06/01 06:07:41;;;;;;;12.60;3.90;;;;;;;;;;5016997;28;20034;-81
2023/06/01 06:10:07;;;;;;;9.85;3.92;;;;;;;;;;5008842;28;20049;-81
2023/06/01 06:12:34;;;;;;;10.77;3.60;;;;;;;;;;5010126;28;20046;-81
2023/06/01 06:15:01;;;;;;;9.07;3.67;;;;;;;;;;5029767;28;20614;-81
2023/06/01 06:17:28;;;;;;;11.73;3.90;;;;;;;;;;5029930;28;20045;-83
2023/06/01 06:19:54;;;;;;;12.63;3.58;;;;;;;;;;5031155;28;20481;-80
2023/06/01 06:22:21;;;;;;;19.80;4.95;;;;;;;;;;5030384;28;20045;-82
2023/06/01 06:24:49;;;;;;;16.90;4.32;;;;;;;;;;5013261;28;20076;-82
2023/06/01 06:27:15;;;;;;;11.18;3.83;;;;;;;;;;5030312;28;20041;-82
2023/06/01 06:29:42;;;;;;;7.28;3.38;;;;;;;;;;5040869;28;20071;-81
2023/06/01 06:32:09;;;;;;;17.80;4.18;;;;;;;;;;5034069;28;20623;-79
2023/06/01 06:34:36;;;;;;;7.22;3.65;;;;;;;;;;5027317;28;20099;-80
2023/06/01 06:37:06;;;;;;;8.20;3.78;;;;;;;;;;5027674;28;20118;-80
2023/06/01 06:39:33;;;;;;;14.05;4.43;;;;;;;;;;5028369;28;20802;-82
2023/06/01 06:42:02;;;;;;;19.13;4.82;;;;;;;;;;5027161;28;20124;-81
2023/06/01 06:44:29;;;;;;;12.57;4.20;;;;;;;;;;5027353;28;20124;-81
2023/06/01 06:46:58;;;;;;;21.60;4.32;;;;;;;;;;5027685;28;20084;-81
2023/06/01 06:49:28;;;;;;;12.18;3.95;;;;;;;;;;5028749;28;20212;-81
2023/06/01 06:51:54;;;;;;;10.35;3.63;;;;;;;;;;5028853;28;20105;-81
2023/06/01 06:54:21;;;;;;;11.85;4.32;;;;;;;;;;5030325;28;20100;-82
2023/06/01 06:56:48;;;;;;;9.85;4.00;;;;;;;;;;5028673;28;20052;-82
2023/06/01 06:59:14;;;;;;;13.10;3.80;;;;;;;;;;5029358;28;20132;-82
2023/06/01 07:01:41;;;;;;;8.57;3.67;;;;;;;;;;5034641;28;20103;-80
2023/06/01 07:04:08;;;;;;;9.90;3.67;;;;;;;;;;5028158;28;20055;-81
2023/06/01 07:06:36;;;;;;;9.75;3.78;;;;;;;;;;5021684;28;20045;-81
2023/06/01 07:09:05;;;;;;;8.10;3.15;;;;;;;;;;5008680;28;20113;-82
2023/06/01 07:11:31;;;;;;;7.60;3.53;;;;;;;;;;5008712;28;20053;-80
2023/06/01 07:13:58;;;;;;;7.45;3.33;;;;;;;;;;5008211;28;20128;-81
2023/06/01 07:16:25;;;;;;;8.68;3.20;;;;;;;;;;5008174;28;20053;-81
2023/06/01 07:18:52;;;;;;;6.35;2.92;;;;;;;;;;5011338;28;20137;-80
2023/06/01 07:21:19;;;;;;;8.27;3.60;;;;;;;;;;5025545;28;20049;-80
2023/06/01 07:23:46;;;;;;;8.48;3.60;;;;;;;;;;5026151;28;20052;-81
2023/06/01 07:26:12;;;;;;;10.98;3.25;;;;;;;;;;5026822;28;20103;-83
2023/06/01 07:28:42;;;;;;;11.27;3.83;;;;;;;;;;5028891;28;20045;-79
2023/06/01 07:31:09;;;;;;;9.27;3.50;;;;;;;;;;5026665;28;20056;-79
2023/06/01 07:33:36;;;;;;;9.02;3.22;;;;;;;;;;5027670;28;20038;-83
2023/06/01 07:36:03;;;;;;;8.60;3.17;;;;;;;;;;5026630;28;20049;-82
2023/06/01 07:38:31;;;;;;;10.10;3.15;;;;;;;;;;5027385;28;20056;-80
2023/06/01 07:40:57;;;;;;;11.68;2.60;;;;;;;;;;5029705;28;20107;-80
2023/06/01 07:43:24;;;;;;;9.05;2.95;;;;;;;;;;5028885;28;20080;-81
2023/06/01 07:45:51;;;;;;;9.13;2.75;;;;;;;;;;5027851;28;20049;-81
2023/06/01 07:48:17;;;;;;;7.68;2.53;;;;;;;;;;5026331;28;20056;-82
2023/06/01 07:50:44;;;;;;;6.03;2.83;;;;;;;;;;5033591;28;20060;-81
2023/06/01 07:53:11;;;;;;;11.80;2.95;;;;;;;;;;5039787;28;20041;-82
2023/06/01 07:55:38;;;;;;;8.75;2.58;;;;;;;;;;5026299;28;20496;-82
2023/06/01 07:58:05;;;;;;;9.20;2.90;;;;;;;;;;5033431;28;20049;-81
2023/06/01 08:00:32;;;;;;;7.53;3.28;;;;;;;;;;5033546;28;20056;-82
2023/06/01 08:02:59;;;;;;;7.50;2.67;;;;;;;;;;5033614;28;20041;-83
2023/06/01 08:05:26;;;;;;;5.93;2.55;;;;;;;;;;5033799;28;20041;-82
2023/06/01 08:07:52;;;;;;;7.18;2.40;;;;;;;;;;5012622;28;20383;-80
2023/06/01 08:10:19;;;;;;;9.43;3.60;;;;;;;;;;5010020;28;20046;-80
2023/06/01 08:12:47;;;;;;;5.38;2.40;;;;;;;;;;5013043;28;20161;-80
2023/06/01 08:15:15;;;;;;;7.22;2.78;;;;;;;;;;5011426;28;20046;-81
2023/06/01 08:17:43;;;;;;;8.93;2.80;;;;;;;;;;5011609;28;20384;-80
2023/06/01 08:20:10;;;;;;;5.57;2.50;;;;;;;;;;5014836;28;20536;-83
2023/06/01 08:22:37;;;;;;;8.93;3.05;;;;;;;;;;4996955;28;20045;-81
2023/06/01 08:25:05;;;;;;;6.10;2.95;;;;;;;;;;5011759;28;20422;-81
2023/06/01 08:27:32;;;;;;;6.95;3.03;;;;;;;;;;5014653;28;20104;-85
2023/06/01 08:30:01;;;;;;;7.78;3.13;;;;;;;;;;5014751;28;20049;-85
2023/06/01 08:32:28;;;;;;;8.65;3.13;;;;;;;;;;5013667;28;20046;-83
2023/06/01 08:34:56;;;;;;;14.10;3.35;;;;;;;;;;5014266;28;20155;-84
2023/06/01 08:37:23;;;;;;;6.50;3.17;;;;;;;;;;4995519;28;20042;-82
2023/06/01 08:39:50;;;;;;;13.65;3.65;;;;;;;;;;5012027;28;20045;-83
2023/06/01 08:42:25;;;;;;;5.65;2.45;;;;;;;;;;5011460;28;20037;-83
2023/06/01 08:44:57;;;;;;;8.48;2.70;;;;;;;;;;5030139;28;20056;-84
2023/06/01 08:47:25;;;;;;;6.30;2.25;;;;;;;;;;5033202;28;20052;-82
2023/06/01 08:49:52;;;;;;;7.72;2.60;;;;;;;;;;5034281;28;20132;-83
2023/06/01 08:52:21;;;;;;;9.65;3.25;;;;;;;;;;5033027;28;20268;-82
2023/06/01 08:54:48;;;;;;;14.75;3.40;;;;;;;;;;5031205;28;20041;-81
2023/06/01 08:57:15;;;;;;;7.95;3.67;;;;;;;;;;5031081;28;20450;-83
2023/06/01 08:59:45;;;;;;;9.50;3.20;;;;;;;;;;5033089;28;20057;-80
2023/06/01 09:02:13;;;;;;;10.77;3.67;;;;;;;;;;5036263;28;20112;-82
2023/06/01 09:04:44;;;;;;;10.10;3.65;;;;;;;;;;5020203;28;20049;-82
2023/06/01 09:07:13;;;;;;;10.80;3.83;;;;;;;;;;4992476;28;20199;-81
2023/06/01 09:09:41;;;;;;;12.60;3.88;;;;;;;;;;4995281;28;20481;-80
2023/06/01 09:12:20;;;;;;;12.75;3.88;;;;;;;;;;4994449;28;20041;-81
2023/06/01 09:14:48;;;;;;;11.10;4.47;;;;;;;;;;4995669;28;20056;-84
2023/06/01 09:17:22;;;;;;;8.45;4.13;;;;;;;;;;4994515;28;20042;-81
2023/06/01 09:19:57;;;;;;;8.35;3.63;;;;;;;;;;5003898;28;20058;-84
2023/06/01 09:22:24;;;;;;;8.63;3.20;;;;;;;;;;5011303;28;20053;-84
2023/06/01 09:24:57;;;;;;;10.50;3.42;;;;;;;;;;4996548;28;20056;-81
2023/06/01 09:27:25;;;;;;;12.55;3.55;;;;;;;;;;5011878;28;20053;-82
2023/06/01 09:29:56;;;;;;;5.72;3.35;;;;;;;;;;5012844;28;20104;-82
2023/06/01 09:32:24;;;;;;;8.20;3.90;;;;;;;;;;5011337;28;20113;-82
2023/06/01 09:34:50;;;;;;;13.88;3.85;;;;;;;;;;5010160;28;20056;-82
2023/06/01 09:37:17;;;;;;;8.55;3.63;;;;;;;;;;4991984;28;20137;-82
2023/06/01 09:39:44;;;;;;;11.25;3.53;;;;;;;;;;5005463;28;20034;-82
2023/06/01 09:42:12;;;;;;;11.70;3.28;;;;;;;;;;4992299;28;20049;-82
2023/06/01 09:44:41;;;;;;;7.22;3.13;;;;;;;;;;4994771;28;20046;-81
2023/06/01 09:47:14;;;;;;;14.73;3.33;;;;;;;;;;4993411;28;20408;-82
2023/06/01 09:49:42;;;;;;;16.77;3.38;;;;;;;;;;5008911;28;20173;-79
2023/06/01 09:52:12;;;;;;;11.43;2.67;;;;;;;;;;5011615;28;20045;-81
2023/06/01 09:54:43;;;;;;;6.82;2.70;;;;;;;;;;4993158;28;20061;-83
2023/06/01 09:57:11;;;;;;;7.28;2.85;;;;;;;;;;5011402;28;20054;-81
2023/06/01 09:59:40;;;;;;;9.90;3.30;;;;;;;;;;5010308;28;20046;-80
2023/06/01 10:02:10;;;;;;;9.75;3.28;;;;;;;;;;4995049;28;20140;-80
2023/06/01 10:04:39;;;;;;;8.43;2.55;;;;;;;;;;5010126;28;20034;-80
2023/06/01 10:07:06;;;;;;;11.05;3.30;;;;;;;;;;4992661;28;20057;-83
2023/06/01 10:09:33;;;;;;;15.32;3.17;;;;;;;;;;4992427;28;20539;-82
2023/06/01 10:12:01;;;;;;;10.98;2.95;;;;;;;;;;5008489;28;20080;-83
2023/06/01 10:14:27;;;;;;;14.73;3.10;;;;;;;;;;5008432;28;20526;-83
2023/06/01 10:16:54;;;;;;;11.63;2.97;;;;;;;;;;5009182;28;20046;-83
2023/06/01 10:19:21;;;;;;;8.98;2.92;;;;;;;;;;5008453;28;20052;-80
2023/06/01 10:21:49;;;;;;;9.80;2.70;;;;;;;;;;5010060;28;20050;-82
2023/06/01 10:24:19;;;;;;;8.57;2.55;;;;;;;;;;5008704;28;20041;-79
2023/06/01 10:26:51;;;;;;;6.53;2.33;;;;;;;;;;5007740;28;20056;-82
2023/06/01 10:29:18;;;;;;;6.50;2.22;;;;;;;;;;4995854;28;20108;-80
2023/06/01 10:31:45;;;;;;;9.45;2.50;;;;;;;;;;5009769;28;20566;-80
2023/06/01 10:34:12;;;;;;;9.93;2.40;;;;;;;;;;5009770;28;20038;-81
2023/06/01 10:37:03;;;;;;;9.60;2.60;;;;;;;;;;5009133;28;20056;-81
2023/06/01 10:39:30;;;;;;;6.15;2.42;;;;;;;;;;5001826;28;20450;-86
2023/06/01 10:41:58;;;;;;;6.15;2.40;;;;;;;;;;4993498;28;20045;-83
2023/06/01 10:44:40;;;;;;;8.93;2.40;;;;;;;;;;5014324;28;20050;-79
2023/06/01 10:47:12;;;;;;;9.75;2.45;;;;;;;;;;5010519;28;20042;-82
2023/06/01 10:49:51;;;;;;;6.97;2.50;;;;;;;;;;5008007;28;20522;-83
2023/06/01 10:52:29;;;;;;;7.82;2.83;;;;;;;;;;5010320;28;20041;-80
2023/06/01 10:55:11;;;;;;;5.53;2.78;;;;;;;;;;5008791;28;20457;-82
2023/06/01 10:57:38;;;;;;;12.02;2.90;;;;;;;;;;5008852;28;20053;-83
2023/06/01 11:00:09;;;;;;;7.15;2.80;;;;;;;;;;4995602;28;20048;-81
2023/06/01 11:02:43;;;;;;;9.40;3.00;;;;;;;;;;5012454;28;20038;-83
2023/06/01 11:05:28;;;;;;;13.55;2.88;;;;;;;;;;5013223;28;20065;-82
2023/06/01 11:07:55;;;;;;;5.95;2.67;;;;;;;;;;5015246;28;20387;-81
2023/06/01 11:10:41;;;;;;;7.63;2.72;;;;;;;;;;5006879;28;20147;-83
2023/06/01 11:13:11;;;;;;;4.85;2.45;;;;;;;;;;5014799;28;20048;-84
2023/06/01 11:15:38;;;;;;;9.45;2.70;;;;;;;;;;5032394;28;20104;-82
2023/06/01 11:18:31;;;;;;;8.23;3.03;;;;;;;;;;5015760;28;20045;-83
2023/06/01 11:20:58;;;;;;;14.27;2.80;;;;;;;;;;5011340;28;20607;-83
2023/06/01 11:23:24;;;;;;;6.30;2.70;;;;;;;;;;5028316;28;20041;-84
2023/06/01 11:25:51;;;;;;;7.57;2.80;;;;;;;;;;5033553;28;20461;-82
2023/06/01 11:28:19;;;;;;;6.30;2.63;;;;;;;;;;5037689;28;20220;-84
2023/06/01 11:30:50;;;;;;;11.07;2.72;;;;;;;;;;5039391;28;20141;-82
2023/06/01 11:33:16;;;;;;;8.60;2.35;;;;;;;;;;5034174;28;20045;-80
2023/06/01 11:35:43;;;;;;;8.63;2.50;;;;;;;;;;5034951;28;20041;-84
2023/06/01 11:38:11;;;;;;;9.38;2.85;;;;;;;;;;5036895;28;20048;-84
2023/06/01 11:40:37;;;;;;;10.15;2.80;;;;;;;;;;5037143;28;20042;-79
2023/06/01 11:43:06;;;;;;;10.07;3.33;;;;;;;;;;5037032;28;20048;-83
2023/06/01 11:45:32;;;;;;;15.38;2.88;;;;;;;;;;5037507;28;20045;-83
2023/06/01 11:48:09;;;;;;;6.07;3.17;;;;;;;;;;5037188;28;20065;-84
2023/06/01 11:50:36;;;;;;;11.27;2.80;;;;;;;;;;5019312;28;20053;-79
2023/06/01 11:53:02;;;;;;;7.30;2.53;;;;;;;;;;5035361;28;20595;-82
2023/06/01 11:55:29;;;;;;;8.23;2.85;;;;;;;;;;5033002;28;20070;-84
2023/06/01 11:57:56;;;;;;;10.68;3.00;;;;;;;;;;5032179;28;20061;-81
2023/06/01 12:00:23;;;;;;;8.65;3.33;;;;;;;;;;5033360;28;20539;-82
2023/06/01 12:03:04;;;;;;;8.95;2.88;;;;;;;;;;5033359;28;20413;-81
2023/06/01 12:05:37;;;;;;;8.98;3.45;;;;;;;;;;5026121;28;20073;-81
2023/06/01 12:08:04;;;;;;;14.05;3.53;;;;;;;;;;5004154;28;20080;-83
2023/06/01 12:10:32;;;;;;;8.27;2.90;;;;;;;;;;5024293;28;20052;-79
2023/06/01 12:12:59;;;;;;;11.10;3.08;;;;;;;;;;5014593;28;20046;-80
2023/06/01 12:15:25;;;;;;;7.45;2.85;;;;;;;;;;5014361;28;20049;-81
2023/06/01 12:17:53;;;;;;;10.80;3.35;;;;;;;;;;5015107;28;20080;-83
2023/06/01 12:20:43;;;;;;;9.20;2.70;;;;;;;;;;5012604;28;20046;-83
2023/06/01 12:23:12;;;;;;;6.88;2.65;;;;;;;;;;5014370;28;20492;-83
2023/06/01 12:25:49;;;;;;;6.53;2.72;;;;;;;;;;5013518;28;20058;-84
2023/06/01 12:28:17;;;;;;;7.97;2.50;;;;;;;;;;4998336;28;20057;-82
2023/06/01 12:30:44;;;;;;;16.50;2.60;;;;;;;;;;5013353;28;20041;-81
2023/06/01 12:33:30;;;;;;;7.75;2.42;;;;;;;;;;5014590;28;20103;-84
2023/06/01 12:35:57;;;;;;;11.68;2.63;;;;;;;;;;5013214;28;20510;-82
2023/06/01 12:38:23;;;;;;;10.15;2.58;;;;;;;;;;5012837;28;20046;-85
2023/06/01 12:41:09;;;;;;;12.30;2.45;;;;;;;;;;5013075;28;20134;-83
2023/06/01 12:43:36;;;;;;;9.75;2.60;;;;;;;;;;5009972;28;20084;-82
2023/06/01 12:46:06;;;;;;;7.78;2.40;;;;;;;;;;5010819;28;20054;-83
2023/06/01 12:48:34;;;;;;;12.63;2.40;;;;;;;;;;5011513;28;20064;-84
2023/06/01 12:51:01;;;;;;;7.78;2.25;;;;;;;;;;4997096;28;20076;-80
2023/06/01 12:53:28;;;;;;;6.05;2.47;;;;;;;;;;5011346;28;20046;-79
2023/06/01 12:55:55;;;;;;;5.55;2.28;;;;;;;;;;5010935;28;20053;-82
2023/06/01 12:58:22;;;;;;;7.85;2.53;;;;;;;;;;5009486;28;20409;-82
2023/06/01 13:00:50;;;;;;;7.70;2.20;;;;;;;;;;5009409;28;20155;-78
2023/06/01 13:03:37;;;;;;;7.03;2.78;;;;;;;;;;5011497;28;20073;-83
2023/06/01 13:06:04;;;;;;;11.40;2.72;;;;;;;;;;5013003;28;20470;-81
2023/06/01 13:08:30;;;;;;;9.90;3.00;;;;;;;;;;5012699;28;20053;-79
2023/06/01 13:10:57;;;;;;;9.02;2.70;;;;;;;;;;5009066;28;20116;-83
2023/06/01 13:13:24;;;;;;;15.55;2.92;;;;;;;;;;5008117;28;20135;-80
2023/06/01 13:15:51;;;;;;;11.43;2.78;;;;;;;;;;5008802;28;20133;-80
2023/06/01 13:18:17;;;;;;;7.90;3.20;;;;;;;;;;5010215;28;20107;-80
2023/06/01 13:20:44;;;;;;;6.45;2.70;;;;;;;;;;5010506;28;20041;-81
2023/06/01 13:23:11;;;;;;;7.00;3.03;;;;;;;;;;5010415;28;20149;-82
2023/06/01 13:25:38;;;;;;;9.27;3.08;;;;;;;;;;5012852;28;20041;-82
2023/06/01 13:28:07;;;;;;;8.45;3.20;;;;;;;;;;5009832;28;20045;-82
2023/06/01 13:30:34;;;;;;;11.43;3.20;;;;;;;;;;5015523;28;20056;-84
2023/06/01 13:33:01;;;;;;;8.75;2.72;;;;;;;;;;5012135;28;20115;-80
2023/06/01 13:35:28;;;;;;;12.23;3.45;;;;;;;;;;5023585;28;20049;-82
2023/06/01 13:37:55;;;;;;;13.05;3.20;;;;;;;;;;5016762;28;20065;-83
2023/06/01 13:40:25;;;;;;;12.45;3.40;;;;;;;;;;5014485;28;20100;-82
2023/06/01 13:42:51;;;;;;;7.15;3.67;;;;;;;;;;5011783;28;20073;-80
2023/06/01 13:45:19;;;;;;;9.30;3.53;;;;;;;;;;4994637;28;20041;-81
2023/06/01 13:47:46;;;;;;;10.57;3.75;;;;;;;;;;5008061;28;20049;-82
2023/06/01 13:50:13;;;;;;;8.75;3.75;;;;;;;;;;5009259;28;20100;-80
2023/06/01 13:52:40;;;;;;;8.63;3.95;;;;;;;;;;5010954;28;20045;-82
2023/06/01 13:55:08;;;;;;;6.47;4.20;;;;;;;;;;5010143;28;20156;-81
2023/06/01 13:57:35;;;;;;;19.48;4.20;;;;;;;;;;5009922;28;20483;-82
2023/06/01 14:00:03;;;;;;;10.02;4.20;;;;;;;;;;4993593;28;20050;-82
2023/06/01 14:02:31;;;;;;;11.40;4.20;;;;;;;;;;5006783;28;20049;-82
2023/06/01 14:04:58;;;;;;;9.43;3.90;;;;;;;;;;4988893;28;20042;-80
2023/06/01 14:07:34;;;;;;;10.73;3.95;;;;;;;;;;5007151;28;20577;-81
2023/06/01 14:10:00;;;;;;;8.70;4.20;;;;;;;;;;5006675;28;20442;-80
2023/06/01 14:12:27;;;;;;;9.80;4.35;;;;;;;;;;5008544;28;20141;-79
2023/06/01 14:14:55;;;;;;;8.80;4.18;;;;;;;;;;5004209;28;20419;-82
2023/06/01 14:17:22;;;;;;;7.13;4.00;;;;;;;;;;4990443;28;20133;-82
2023/06/01 14:19:51;;;;;;;12.68;3.85;;;;;;;;;;4998164;28;20057;-84
2023/06/01 14:22:17;;;;;;;6.90;3.97;;;;;;;;;;5005536;28;20066;-81
2023/06/01 14:24:47;;;;;;;9.68;4.63;;;;;;;;;;5009137;28;20041;-78
2023/06/01 14:27:14;;;;;;;7.90;4.82;;;;;;;;;;5007071;28;20038;-81
2023/06/01 14:29:41;;;;;;;9.60;5.40;;;;;;;;;;4990951;28;20046;-81
2023/06/01 14:32:10;;;;;;;9.57;5.38;;;;;;;;;;5019105;28;20049;-83
2023/06/01 14:34:38;;;;;;;11.48;5.25;;;;;;;;;;4995450;28;20046;-82
2023/06/01 14:37:06;;;;;;;11.35;5.28;;;;;;;;;;5008766;28;20562;-70
2023/06/01 14:39:33;;;;;;;9.95;4.82;;;;;;;;;;4988634;28;20406;-69
2023/06/01 14:42:00;;;;;;;10.30;5.13;;;;;;;;;;5005438;28;20086;-70
2023/06/01 14:44:27;;;;;;;11.18;5.45;;;;;;;;;;5005027;28;20402;-70
2023/06/01 14:46:54;;;;;;;14.70;5.50;;;;;;;;;;5004124;28;20070;-69